createdAt,value
2017-08-01T00:00:06.672Z,1003.00
2017-08-01T00:01:08.102Z,1002.98
2017-08-01T00:02:09.545Z,1002.89
2017-08-01T00:03:10.989Z,1002.90
2017-08-01T00:04:12.416Z,1002.75
2017-08-01T00:05:13.849Z,1002.45
2017-08-01T00:06:15.277Z,1002.29
2017-08-01T00:07:16.714Z,1001.96
2017-08-01T00:08:18.144Z,1001.72
2017-08-01T00:09:19.575Z,1001.49
2017-08-01T00:10:21.005Z,1001.29
2017-08-01T00:11:22.439Z,1001.29
2017-08-01T00:12:23.875Z,1000.98
2017-08-01T00:13:25.316Z,1000.60
2017-08-01T00:14:26.745Z,1000.59
2017-08-01T00:15:28.190Z,1000.56
2017-08-01T00:16:29.604Z,1000.46
2017-08-01T00:17:31.039Z,1000.28
2017-08-01T00:18:32.464Z,1000.33
2017-08-01T00:19:33.891Z,1000.29
2017-08-01T00:20:35.325Z,1000.21
2017-08-01T00:21:36.755Z,1000.59
2017-08-01T00:22:38.178Z,1000.33
2017-08-01T00:23:39.617Z,1000.00
2017-08-01T00:24:41.050Z,1000.12
2017-08-01T00:25:42.474Z,999.99
2017-08-01T00:26:43.907Z,1000.19
2017-08-01T00:27:45.348Z,1000.28
2017-08-01T00:28:46.782Z,1000.36
2017-08-01T00:29:48.214Z,1000.24
2017-08-01T00:30:49.654Z,1000.37
2017-08-01T00:31:51.077Z,1000.17
2017-08-01T00:32:52.508Z,1000.40
2017-08-01T00:33:53.936Z,1000.49
2017-08-01T00:34:55.372Z,1000.66
2017-08-01T00:35:56.794Z,1000.56
2017-08-01T00:36:58.229Z,1000.81
2017-08-01T00:37:59.655Z,1000.58
2017-08-01T00:39:01.096Z,1000.59
2017-08-01T00:40:02.529Z,1000.51
2017-08-01T00:41:03.961Z,1000.63
2017-08-01T00:42:05.382Z,1000.66
2017-08-01T00:43:06.809Z,1000.62
2017-08-01T00:44:08.238Z,1000.56
2017-08-01T00:45:09.678Z,1000.61
2017-08-01T00:46:11.103Z,1000.60
2017-08-01T00:47:12.537Z,1000.59
2017-08-01T00:48:13.965Z,1000.55
2017-08-01T00:49:15.396Z,1000.68
2017-08-01T00:50:16.835Z,1000.68
2017-08-01T00:51:18.263Z,1000.61
2017-08-01T00:52:19.688Z,1000.69
2017-08-01T00:53:21.123Z,1000.69
2017-08-01T00:54:22.540Z,1000.84
2017-08-01T00:55:23.978Z,1001.02
2017-08-01T00:56:25.409Z,1000.85
2017-08-01T00:57:26.840Z,1000.74
2017-08-01T00:58:28.264Z,1000.72
2017-08-01T00:59:29.691Z,1000.81
2017-08-01T01:00:31.128Z,1000.91
2017-08-01T01:01:32.552Z,1000.61
2017-08-01T01:02:33.975Z,1000.48
2017-08-01T01:03:35.407Z,1000.44
2017-08-01T01:04:36.832Z,1000.72
2017-08-01T01:05:38.256Z,1000.74
2017-08-01T01:06:39.697Z,1000.77
2017-08-01T01:07:41.123Z,1000.80
2017-08-01T01:08:42.559Z,1000.61
2017-08-01T01:09:43.989Z,1000.64
2017-08-01T01:10:45.418Z,1000.75
2017-08-01T01:11:46.846Z,1000.79
2017-08-01T01:12:48.276Z,1000.60
2017-08-01T01:13:49.714Z,1000.54
2017-08-01T01:14:51.148Z,1000.38
2017-08-01T01:15:52.585Z,1000.31
2017-08-01T01:16:54.020Z,1000.33
2017-08-01T01:17:55.441Z,1000.39
2017-08-01T01:18:56.868Z,1000.50
2017-08-01T01:19:58.296Z,1000.60
2017-08-01T01:20:59.723Z,1000.62
2017-08-01T01:22:01.159Z,1000.47
2017-08-01T01:23:02.588Z,1000.52
2017-08-01T01:24:04.017Z,1000.57
2017-08-01T01:25:05.445Z,1000.55
2017-08-01T01:26:06.873Z,1000.52
2017-08-01T01:27:08.296Z,1000.59
2017-08-01T01:28:09.730Z,1000.49
2017-08-01T01:29:11.155Z,1000.53
2017-08-01T01:30:12.589Z,1000.49
2017-08-01T01:31:14.012Z,1000.56
2017-08-01T01:32:15.445Z,1000.58
2017-08-01T01:33:16.874Z,1000.40
2017-08-01T01:34:18.303Z,1000.35
2017-08-01T01:35:19.725Z,1000.37
2017-08-01T01:36:21.147Z,1000.38
2017-08-01T01:37:22.576Z,1000.40
2017-08-01T01:38:24.008Z,1000.38
2017-08-01T01:39:25.438Z,1000.44
2017-08-01T01:40:26.875Z,1000.49
2017-08-01T01:41:28.291Z,1000.39
2017-08-01T01:42:29.717Z,1000.36
2017-08-01T01:43:31.147Z,1000.25
2017-08-01T01:44:32.573Z,1000.26
2017-08-01T01:45:33.995Z,1000.28
2017-08-01T01:46:35.425Z,1000.20
2017-08-01T01:47:36.857Z,1000.22
2017-08-01T01:48:38.280Z,1000.28
2017-08-01T01:49:39.722Z,1000.25
2017-08-01T01:50:41.129Z,1000.33
2017-08-01T01:51:42.556Z,1000.43
2017-08-01T01:52:43.977Z,1000.57
2017-08-01T01:53:45.413Z,1000.56
2017-08-01T01:54:46.838Z,1000.61
2017-08-01T01:55:48.270Z,1000.66
2017-08-01T01:56:49.698Z,1000.55
2017-08-01T01:57:51.127Z,1000.39
2017-08-01T01:58:52.546Z,1000.33
2017-08-01T01:59:53.976Z,1000.19
2017-08-01T02:00:55.406Z,1000.24
2017-08-01T02:01:56.840Z,1000.25
2017-08-01T02:02:58.264Z,1000.28
2017-08-01T02:03:59.692Z,1000.18
2017-08-01T02:05:01.113Z,1000.29
2017-08-01T02:06:02.537Z,1000.42
2017-08-01T02:07:03.970Z,1000.38
2017-08-01T02:08:05.395Z,1000.20
2017-08-01T02:09:06.823Z,1000.18
2017-08-01T02:10:08.249Z,1000.13
2017-08-01T02:11:09.674Z,1000.20
2017-08-01T02:12:11.105Z,1000.21
2017-08-01T02:13:12.535Z,1000.22
2017-08-01T02:14:13.997Z,1000.25
2017-08-01T02:15:15.431Z,1000.22
2017-08-01T02:16:16.856Z,1000.08
2017-08-01T02:17:18.287Z,1000.07
2017-08-01T02:18:19.711Z,1000.02
2017-08-01T02:19:21.136Z,1000.08
2017-08-01T02:20:22.611Z,1000.07
2017-08-01T02:21:24.098Z,1000.09
2017-08-01T02:22:25.532Z,1000.05
2017-08-01T02:23:26.955Z,1000.01
2017-08-01T02:24:28.467Z,999.97
2017-08-01T02:25:29.896Z,999.91
2017-08-01T02:26:31.317Z,999.89
2017-08-01T02:27:32.783Z,1000.03
2017-08-01T02:28:34.208Z,1000.06
2017-08-01T02:29:35.657Z,1000.09
2017-08-01T02:30:37.067Z,999.94
2017-08-01T02:31:38.494Z,999.86
2017-08-01T02:32:39.923Z,999.91
2017-08-01T02:33:41.349Z,999.83
2017-08-01T02:34:42.780Z,999.77
2017-08-01T02:35:44.207Z,999.92
2017-08-01T02:36:45.639Z,999.88
2017-08-01T02:37:47.058Z,999.85
2017-08-01T02:38:48.479Z,999.95
2017-08-01T02:39:49.903Z,999.97
2017-08-01T02:40:51.331Z,1000.02
2017-08-01T02:41:52.751Z,999.95
2017-08-01T02:42:54.174Z,999.79
2017-08-01T02:43:55.604Z,999.75
2017-08-01T02:44:57.032Z,999.83
2017-08-01T02:45:58.468Z,999.78
2017-08-01T02:46:59.897Z,999.76
2017-08-01T02:48:01.328Z,999.76
2017-08-01T02:49:02.747Z,999.66
2017-08-01T02:50:04.173Z,999.57
2017-08-01T02:51:05.596Z,999.45
2017-08-01T02:52:07.019Z,999.45
2017-08-01T02:53:08.451Z,999.53
2017-08-01T02:54:09.877Z,999.58
2017-08-01T02:55:11.304Z,999.54
2017-08-01T02:56:12.733Z,999.47
2017-08-01T02:57:14.159Z,999.47
2017-08-01T02:58:15.592Z,999.45
2017-08-01T02:59:17.017Z,999.51
2017-08-01T03:00:18.447Z,999.50
2017-08-01T03:01:19.871Z,999.51
2017-08-01T03:02:21.294Z,999.48
2017-08-01T03:03:22.727Z,999.33
2017-08-01T03:04:24.150Z,999.35
2017-08-01T03:05:25.578Z,999.44
2017-08-01T03:06:27.001Z,999.45
2017-08-01T03:07:28.429Z,999.42
2017-08-01T03:08:29.854Z,999.34
2017-08-01T03:09:31.278Z,999.29
2017-08-01T03:10:32.702Z,999.34
2017-08-01T03:11:34.128Z,999.37
2017-08-01T03:12:35.558Z,999.35
2017-08-01T03:13:36.986Z,999.37
2017-08-01T03:14:38.408Z,999.29
2017-08-01T03:15:39.834Z,999.35
2017-08-01T03:16:41.256Z,999.35
2017-08-01T03:17:42.685Z,999.37
2017-08-01T03:18:44.116Z,999.37
2017-08-01T03:19:45.537Z,999.29
2017-08-01T03:20:46.968Z,999.28
2017-08-01T03:21:48.395Z,999.25
2017-08-01T03:22:49.816Z,999.20
2017-08-01T03:23:51.258Z,999.22
2017-08-01T03:24:52.683Z,999.27
2017-08-01T03:25:54.115Z,999.19
2017-08-01T03:26:55.543Z,999.18
2017-08-01T03:27:56.968Z,999.19
2017-08-01T03:28:58.393Z,999.16
2017-08-01T03:29:59.824Z,999.28
2017-08-01T03:31:01.244Z,999.23
2017-08-01T03:32:02.758Z,999.22
2017-08-01T03:33:04.190Z,999.22
2017-08-01T03:34:05.611Z,999.26
2017-08-01T03:35:07.033Z,999.30
2017-08-01T03:36:08.466Z,999.35
2017-08-01T03:37:09.928Z,999.35
2017-08-01T03:38:11.353Z,999.39
2017-08-01T03:39:12.774Z,999.37
2017-08-01T03:40:14.200Z,999.33
2017-08-01T03:41:15.636Z,999.26
2017-08-01T03:42:17.061Z,999.23
2017-08-01T03:43:18.481Z,999.23
2017-08-01T03:44:19.909Z,999.18
2017-08-01T03:45:21.335Z,999.19
2017-08-01T03:46:22.774Z,999.24
2017-08-01T03:47:24.193Z,999.19
2017-08-01T03:48:25.615Z,999.28
2017-08-01T03:49:27.041Z,999.25
2017-08-01T03:50:28.469Z,999.25
2017-08-01T03:51:29.891Z,999.20
2017-08-01T03:52:31.314Z,999.23
2017-08-01T03:53:32.746Z,999.22
2017-08-01T03:54:34.167Z,999.23
2017-08-01T03:55:35.595Z,999.25
2017-08-01T03:56:37.015Z,999.22
2017-08-01T03:57:38.438Z,999.17
2017-08-01T03:58:39.876Z,999.17
2017-08-01T03:59:41.298Z,999.14
2017-08-01T04:00:42.727Z,999.17
2017-08-01T04:01:44.149Z,999.15
2017-08-01T04:02:45.591Z,999.11
2017-08-01T04:03:47.019Z,999.07
2017-08-01T04:04:48.445Z,999.03
2017-08-01T04:05:49.869Z,998.95
2017-08-01T04:06:51.291Z,998.94
2017-08-01T04:07:52.727Z,998.91
2017-08-01T04:08:54.149Z,998.85
2017-08-01T04:09:55.596Z,998.85
2017-08-01T04:10:57.017Z,998.81
2017-08-01T04:11:58.442Z,998.76
2017-08-01T04:12:59.876Z,998.69
2017-08-01T04:14:01.301Z,998.67
2017-08-01T04:15:02.727Z,998.64
2017-08-01T04:16:04.148Z,998.59
2017-08-01T04:17:05.580Z,998.56
2017-08-01T04:18:07.006Z,998.59
2017-08-01T04:19:08.437Z,998.57
2017-08-01T04:20:09.863Z,998.54
2017-08-01T04:21:11.287Z,998.45
2017-08-01T04:22:12.741Z,998.46
2017-08-01T04:23:14.143Z,998.43
2017-08-01T04:24:15.577Z,998.50
2017-08-01T04:25:17.018Z,998.45
2017-08-01T04:26:18.445Z,998.50
2017-08-01T04:27:19.879Z,998.62
2017-08-01T04:28:21.298Z,998.66
2017-08-01T04:29:22.728Z,998.76
2017-08-01T04:30:24.163Z,998.74
2017-08-01T04:31:25.586Z,998.67
2017-08-01T04:32:27.016Z,998.76
2017-08-01T04:33:28.443Z,998.79
2017-08-01T04:34:29.873Z,998.81
2017-08-01T04:35:31.304Z,998.82
2017-08-01T04:36:32.746Z,998.80
2017-08-01T04:37:34.167Z,998.85
2017-08-01T04:38:35.600Z,998.78
2017-08-01T04:39:37.024Z,998.79
2017-08-01T04:40:38.447Z,998.84
2017-08-01T04:41:39.901Z,998.75
2017-08-01T04:42:41.310Z,998.76
2017-08-01T04:43:42.746Z,998.75
2017-08-01T04:44:44.174Z,998.72
2017-08-01T04:45:45.601Z,998.69
2017-08-01T04:46:47.028Z,998.73
2017-08-01T04:47:48.458Z,998.71
2017-08-01T04:48:49.897Z,998.69
2017-08-01T04:49:51.326Z,998.68
2017-08-01T04:50:52.762Z,998.65
2017-08-01T04:51:54.185Z,998.64
2017-08-01T04:52:55.611Z,998.64
2017-08-01T04:53:57.042Z,998.69
2017-08-01T04:54:58.466Z,998.71
2017-08-01T04:55:59.902Z,998.74
2017-08-01T04:57:01.333Z,998.77
2017-08-01T04:58:02.759Z,998.77
2017-08-01T04:59:04.188Z,998.83
2017-08-01T05:00:05.619Z,998.76
2017-08-01T05:01:07.045Z,998.74
2017-08-01T05:02:08.478Z,998.87
2017-08-01T05:03:09.914Z,998.87
2017-08-01T05:04:11.343Z,998.85
2017-08-01T05:05:12.778Z,998.85
2017-08-01T05:06:14.204Z,998.86
2017-08-01T05:07:15.650Z,998.88
2017-08-01T05:08:17.076Z,998.92
2017-08-01T05:09:18.512Z,998.94
2017-08-01T05:10:19.938Z,998.95
2017-08-01T05:11:21.373Z,998.89
2017-08-01T05:12:22.800Z,998.91
2017-08-01T05:13:24.229Z,998.95
2017-08-01T05:14:25.663Z,998.96
2017-08-01T05:15:27.090Z,999.07
2017-08-01T05:16:28.520Z,999.08
2017-08-01T05:17:29.947Z,999.08
2017-08-01T05:18:31.374Z,999.17
2017-08-01T05:19:32.808Z,999.20
2017-08-01T05:20:34.230Z,999.35
2017-08-01T05:21:35.658Z,999.36
2017-08-01T05:22:37.088Z,999.40
2017-08-01T05:23:38.520Z,999.39
2017-08-01T05:24:39.957Z,999.41
2017-08-01T05:25:41.388Z,999.40
2017-08-01T05:26:42.814Z,999.39
2017-08-01T05:27:44.241Z,999.30
2017-08-01T05:28:45.667Z,999.38
2017-08-01T05:29:47.103Z,999.44
2017-08-01T05:30:48.533Z,999.38
2017-08-01T05:31:49.955Z,999.36
2017-08-01T05:32:51.389Z,999.34
2017-08-01T05:33:52.822Z,999.42
2017-08-01T05:34:54.256Z,999.40
2017-08-01T05:35:55.682Z,999.43
2017-08-01T05:36:57.109Z,999.40
2017-08-01T05:37:58.536Z,999.42
2017-08-01T05:38:59.970Z,999.39
2017-08-01T05:40:01.402Z,999.40
2017-08-01T05:41:02.834Z,999.37
2017-08-01T05:42:04.262Z,999.35
2017-08-01T05:43:05.689Z,999.30
2017-08-01T05:44:07.125Z,999.34
2017-08-01T05:45:08.570Z,999.40
2017-08-01T05:46:10.047Z,999.44
2017-08-01T05:47:11.467Z,999.40
2017-08-01T05:48:12.902Z,999.31
2017-08-01T05:49:14.327Z,999.18
2017-08-01T05:50:15.755Z,999.24
2017-08-01T05:51:17.181Z,999.24
2017-08-01T05:52:18.701Z,999.21
2017-08-01T05:53:20.131Z,999.13
2017-08-01T05:54:21.572Z,999.07
2017-08-01T05:55:23.007Z,999.05
2017-08-01T05:56:24.434Z,999.05
2017-08-01T05:57:25.872Z,999.13
2017-08-01T05:58:27.318Z,999.17
2017-08-01T05:59:28.750Z,999.15
2017-08-01T06:00:30.198Z,999.18
2017-08-01T06:01:31.633Z,999.29
2017-08-01T06:02:33.063Z,999.26
2017-08-01T06:03:34.490Z,999.17
2017-08-01T06:04:35.918Z,999.17
2017-08-01T06:05:37.356Z,999.22
2017-08-01T06:06:38.780Z,999.27
2017-08-01T06:07:40.210Z,999.32
2017-08-01T06:08:41.642Z,999.25
2017-08-01T06:09:43.072Z,999.18
2017-08-01T06:10:44.507Z,999.18
2017-08-01T06:11:45.941Z,999.15
2017-08-01T06:12:47.379Z,999.21
2017-08-01T06:13:48.815Z,999.28
2017-08-01T06:14:50.243Z,999.30
2017-08-01T06:15:51.668Z,999.33
2017-08-01T06:16:53.097Z,999.43
2017-08-01T06:17:54.524Z,999.49
2017-08-01T06:18:55.958Z,999.57
2017-08-01T06:19:57.382Z,999.60
2017-08-01T06:20:58.809Z,999.58
2017-08-01T06:22:00.242Z,999.57
2017-08-01T06:23:01.670Z,999.57
2017-08-01T06:24:03.114Z,999.54
2017-08-01T06:25:04.535Z,999.51
2017-08-01T06:26:05.966Z,999.46
2017-08-01T06:27:07.398Z,999.49
2017-08-01T06:28:08.838Z,999.54
2017-08-01T06:29:10.269Z,999.54
2017-08-01T06:30:11.700Z,999.52
2017-08-01T06:31:13.127Z,999.67
2017-08-01T06:32:14.557Z,999.68
2017-08-01T06:33:15.984Z,999.70
2017-08-01T06:34:17.413Z,999.76
2017-08-01T06:35:18.853Z,999.77
2017-08-01T06:36:20.277Z,999.75
2017-08-01T06:37:21.701Z,999.77
2017-08-01T06:38:23.134Z,999.82
2017-08-01T06:39:24.559Z,999.86
2017-08-01T06:40:25.983Z,999.86
2017-08-01T06:41:27.408Z,999.85
2017-08-01T06:42:28.838Z,999.86
2017-08-01T06:43:30.278Z,999.95
2017-08-01T06:44:31.722Z,999.86
2017-08-01T06:45:33.151Z,999.98
2017-08-01T06:46:34.582Z,1000.03
2017-08-01T06:47:36.013Z,1000.02
2017-08-01T06:48:37.442Z,1000.04
2017-08-01T06:49:38.875Z,1000.06
2017-08-01T06:50:40.309Z,1000.04
2017-08-01T06:51:41.751Z,1000.15
2017-08-01T06:52:43.181Z,1000.22
2017-08-01T06:53:44.616Z,1000.38
2017-08-01T06:54:46.046Z,1000.37
2017-08-01T06:55:47.480Z,1000.36
2017-08-01T06:56:48.904Z,1000.36
2017-08-01T06:57:50.336Z,1000.30
2017-08-01T06:58:51.774Z,1000.32
2017-08-01T06:59:53.204Z,1000.40
2017-08-01T07:00:54.642Z,1000.41
2017-08-01T07:01:56.072Z,1000.59
2017-08-01T07:02:57.505Z,1000.66
2017-08-01T07:03:58.926Z,1000.85
2017-08-01T07:05:00.374Z,1000.93
2017-08-01T07:06:01.812Z,1000.99
2017-08-01T07:07:03.243Z,1000.99
2017-08-01T07:08:04.672Z,1000.99
2017-08-01T07:09:06.102Z,1001.14
2017-08-01T07:10:07.533Z,1001.33
2017-08-01T07:11:08.960Z,1001.09
2017-08-01T07:12:10.396Z,1001.01
2017-08-01T07:13:11.832Z,1001.06
2017-08-01T07:14:13.263Z,1000.78
2017-08-01T07:15:14.705Z,1001.04
2017-08-01T07:16:16.128Z,1000.95
2017-08-01T07:17:17.557Z,1000.95
2017-08-01T07:18:18.986Z,1001.15
2017-08-01T07:19:20.425Z,1001.31
2017-08-01T07:20:21.856Z,1001.38
2017-08-01T07:21:23.289Z,1001.40
2017-08-01T07:22:24.783Z,1001.51
2017-08-01T07:23:26.223Z,1001.46
2017-08-01T07:24:27.660Z,1001.52
2017-08-01T07:25:29.095Z,1001.31
2017-08-01T07:26:30.522Z,1001.44
2017-08-01T07:27:32.015Z,1001.55
2017-08-01T07:28:33.454Z,1001.36
2017-08-01T07:29:34.885Z,1001.64
2017-08-01T07:30:36.324Z,1001.58
2017-08-01T07:31:37.755Z,1001.63
2017-08-01T07:32:39.187Z,1001.78
2017-08-01T07:33:40.695Z,1001.52
2017-08-01T07:34:42.126Z,1001.39
2017-08-01T07:35:43.556Z,1001.04
2017-08-01T07:36:44.983Z,1001.03
2017-08-01T07:37:46.428Z,1000.97
2017-08-01T07:38:47.862Z,1001.06
2017-08-01T07:39:49.310Z,1001.13
2017-08-01T07:40:50.784Z,1001.13
2017-08-01T07:41:52.221Z,1000.88
2017-08-01T07:42:53.655Z,1001.06
2017-08-01T07:43:55.100Z,1001.10
2017-08-01T07:44:56.538Z,1001.01
2017-08-01T07:45:58.036Z,1001.04
2017-08-01T07:46:59.467Z,1000.97
2017-08-01T07:48:00.905Z,1001.03
2017-08-01T07:49:02.351Z,1001.10
2017-08-01T07:50:03.788Z,1000.99
2017-08-01T07:51:05.230Z,1000.94
2017-08-01T07:52:06.678Z,1000.87
2017-08-01T07:53:08.107Z,1000.95
2017-08-01T07:54:09.541Z,1000.94
2017-08-01T07:55:10.972Z,1000.91
2017-08-01T07:56:12.419Z,1000.81
2017-08-01T07:57:13.853Z,1000.83
2017-08-01T07:58:15.297Z,1001.16
2017-08-01T07:59:16.742Z,1001.27
2017-08-01T08:00:18.185Z,1001.26
2017-08-01T08:01:19.614Z,1001.00
2017-08-01T08:02:21.056Z,1000.95
2017-08-01T08:03:22.495Z,1000.83
2017-08-01T08:04:23.953Z,1000.98
2017-08-01T08:05:25.383Z,1001.48
2017-08-01T08:06:26.826Z,1001.31
2017-08-01T08:07:28.262Z,1001.83
2017-08-01T08:08:29.693Z,1001.84
2017-08-01T08:09:31.131Z,1001.73
2017-08-01T08:10:32.569Z,1001.67
2017-08-01T08:11:34.028Z,1001.47
2017-08-01T08:12:35.469Z,1001.45
2017-08-01T08:13:36.901Z,1001.53
2017-08-01T08:14:38.404Z,1001.54
2017-08-01T08:15:39.843Z,1001.55
2017-08-01T08:16:41.282Z,1001.74
2017-08-01T08:17:42.713Z,1001.77
2017-08-01T08:18:44.150Z,1001.67
2017-08-01T08:19:45.581Z,1001.73
2017-08-01T08:20:47.018Z,1001.33
2017-08-01T08:21:48.446Z,1001.31
2017-08-01T08:23:53.052Z,1001.74
2017-08-01T08:24:54.485Z,1001.71
2017-08-01T08:25:55.923Z,1001.88
2017-08-01T08:26:57.352Z,1001.80
2017-08-01T08:27:58.785Z,1001.71
2017-08-01T08:29:00.225Z,1001.73
2017-08-01T08:30:01.655Z,1001.67
2017-08-01T08:31:03.091Z,1001.36
2017-08-01T08:32:04.532Z,1001.67
2017-08-01T08:33:05.969Z,1001.44
2017-08-01T08:34:07.395Z,1001.60
2017-08-01T08:35:08.827Z,1001.64
2017-08-01T08:36:10.254Z,1001.86
2017-08-01T08:37:11.694Z,1001.84
2017-08-01T08:38:13.136Z,1001.83
2017-08-01T08:39:14.566Z,1001.74
2017-08-01T08:40:16.003Z,1001.67
2017-08-01T08:41:17.436Z,1001.70
2017-08-01T08:42:18.875Z,1001.62
2017-08-01T08:43:20.927Z,1001.75
2017-08-01T08:44:22.360Z,1001.63
2017-08-01T08:45:23.791Z,1001.80
2017-08-01T08:46:25.226Z,1001.72
2017-08-01T08:47:26.657Z,1001.74
2017-08-01T08:48:28.089Z,1001.76
2017-08-01T08:49:29.522Z,1001.89
2017-08-01T08:50:30.971Z,1001.79
2017-08-01T08:51:32.407Z,1001.60
2017-08-01T08:52:33.839Z,1001.62
2017-08-01T08:53:35.272Z,1001.65
2017-08-01T08:54:36.710Z,1001.75
2017-08-01T08:55:38.162Z,1001.52
2017-08-01T08:56:39.591Z,1001.69
2017-08-01T08:57:41.032Z,1001.85
2017-08-01T08:58:42.508Z,1001.87
2017-08-01T08:59:43.941Z,1001.85
2017-08-01T09:00:45.375Z,1001.69
2017-08-01T09:01:46.822Z,1001.63
2017-08-01T09:02:48.252Z,1001.42
2017-08-01T09:03:49.679Z,1001.56
2017-08-01T09:04:51.106Z,1001.50
2017-08-01T09:05:52.549Z,1001.55
2017-08-01T09:06:53.985Z,1001.57
2017-08-01T09:07:55.421Z,1001.54
2017-08-01T09:08:56.852Z,1001.55
2017-08-01T09:09:58.290Z,1001.41
2017-08-01T09:10:59.720Z,1001.23
2017-08-01T09:12:01.154Z,1001.24
2017-08-01T09:13:02.679Z,1001.14
2017-08-01T09:14:04.127Z,1000.98
2017-08-01T09:15:05.559Z,1000.68
2017-08-01T09:16:06.992Z,1000.33
2017-08-01T09:17:08.462Z,999.94
2017-08-01T09:18:09.905Z,999.53
2017-08-01T09:19:11.346Z,999.32
2017-08-01T09:20:12.780Z,999.13
2017-08-01T09:21:14.263Z,999.15
2017-08-01T09:22:15.691Z,999.20
2017-08-01T09:23:17.125Z,999.14
2017-08-01T09:24:18.570Z,999.45
2017-08-01T09:25:20.073Z,999.16
2017-08-01T09:26:21.520Z,999.17
2017-08-01T09:27:22.956Z,999.16
2017-08-01T09:28:24.391Z,999.30
2017-08-01T09:29:25.818Z,999.76
2017-08-01T09:30:27.247Z,1000.58
2017-08-01T09:31:28.711Z,1000.27
2017-08-01T09:32:30.145Z,1000.01
2017-08-01T09:33:31.575Z,999.84
2017-08-01T09:34:33.009Z,999.94
2017-08-01T09:35:34.443Z,999.91
2017-08-01T09:36:35.881Z,999.80
2017-08-01T09:37:37.311Z,999.85
2017-08-01T09:38:38.742Z,999.89
2017-08-01T09:39:40.182Z,999.98
2017-08-01T09:40:41.612Z,1000.01
2017-08-01T09:41:43.065Z,1000.11
2017-08-01T09:42:44.535Z,1000.08
2017-08-01T09:43:46.062Z,1000.04
2017-08-01T09:44:47.505Z,1000.18
2017-08-01T09:45:48.944Z,1000.19
2017-08-01T09:46:50.381Z,999.94
2017-08-01T09:47:51.812Z,999.93
2017-08-01T09:48:53.252Z,999.95
2017-08-01T09:49:54.688Z,999.80
2017-08-01T09:50:56.134Z,999.84
2017-08-01T09:51:57.560Z,999.75
2017-08-01T09:52:59.013Z,1000.09
2017-08-01T09:54:00.563Z,1000.20
2017-08-01T09:55:01.938Z,1000.62
2017-08-01T09:56:03.374Z,1000.38
2017-08-01T09:57:04.809Z,1000.61
2017-08-01T09:58:07.112Z,1000.98
2017-08-01T09:59:08.666Z,1000.88
2017-08-01T10:00:10.102Z,1000.92
2017-08-01T10:01:12.037Z,1001.16
2017-08-01T10:02:13.472Z,1001.26
2017-08-01T10:03:14.908Z,1001.07
2017-08-01T10:04:16.345Z,1001.40
2017-08-01T10:05:17.786Z,1001.29
2017-08-01T10:06:19.215Z,1001.41
2017-08-01T10:07:20.647Z,1001.52
2017-08-01T10:08:22.081Z,1001.56
2017-08-01T10:09:23.517Z,1001.60
2017-08-01T10:10:24.947Z,1001.64
2017-08-01T10:11:26.386Z,1001.57
2017-08-01T10:12:27.823Z,1001.78
2017-08-01T10:13:29.262Z,1001.82
2017-08-01T10:14:30.701Z,1001.76
2017-08-01T10:15:32.131Z,1001.90
2017-08-01T10:16:33.562Z,1001.97
2017-08-01T10:17:34.996Z,1002.00
2017-08-01T10:18:36.439Z,1002.12
2017-08-01T10:19:37.878Z,1002.29
2017-08-01T10:20:39.321Z,1002.23
2017-08-01T10:21:40.756Z,1002.23
2017-08-01T10:22:42.191Z,1002.47
2017-08-01T10:23:43.641Z,1002.65
2017-08-01T10:24:45.079Z,1002.75
2017-08-01T10:25:46.513Z,1002.89
2017-08-01T10:26:47.948Z,1003.01
2017-08-01T10:27:49.418Z,1003.11
2017-08-01T10:28:51.000Z,1003.14
2017-08-01T10:29:52.407Z,1003.16
2017-08-01T10:30:53.844Z,1003.15
2017-08-01T10:31:55.273Z,1003.17
2017-08-01T10:32:56.711Z,1003.29
2017-08-01T10:33:58.152Z,1003.36
2017-08-01T10:34:59.587Z,1003.40
2017-08-01T10:36:01.023Z,1003.33
2017-08-01T10:37:02.457Z,1003.45
2017-08-01T10:38:03.896Z,1003.49
2017-08-01T10:39:05.343Z,1003.55
2017-08-01T10:40:06.772Z,1003.53
2017-08-01T10:41:08.221Z,1003.53
2017-08-01T10:42:09.663Z,1003.48
2017-08-01T10:43:11.112Z,1003.60
2017-08-01T10:44:12.547Z,1003.57
2017-08-01T10:45:13.986Z,1003.52
2017-08-01T10:46:15.423Z,1003.63
2017-08-01T10:47:16.860Z,1003.54
2017-08-01T10:48:18.292Z,1003.33
2017-08-01T10:49:19.724Z,1003.46
2017-08-01T10:50:21.167Z,1003.68
2017-08-01T10:51:22.604Z,1003.72
2017-08-01T10:52:24.043Z,1003.74
2017-08-01T10:53:25.469Z,1003.75
2017-08-01T10:54:26.896Z,1003.69
2017-08-01T10:55:28.328Z,1003.44
2017-08-01T10:56:29.766Z,1003.25
2017-08-01T10:57:31.872Z,1003.67
2017-08-01T10:58:33.307Z,1003.74
2017-08-01T10:59:34.742Z,1003.68
2017-08-01T11:00:36.181Z,1003.61
2017-08-01T11:01:37.629Z,1003.69
2017-08-01T11:02:39.064Z,1003.73
2017-08-01T11:03:40.532Z,1003.78
2017-08-01T11:04:41.972Z,1003.78
2017-08-01T11:05:43.409Z,1003.66
2017-08-01T11:06:44.837Z,1003.49
2017-08-01T11:07:46.268Z,1003.57
2017-08-01T11:08:47.700Z,1003.16
2017-08-01T11:09:49.134Z,1003.14
2017-08-01T11:10:50.568Z,1003.16
2017-08-01T11:11:52.003Z,1003.34
2017-08-01T11:12:53.524Z,1003.35
2017-08-01T11:13:54.959Z,1003.23
2017-08-01T11:14:56.476Z,1003.76
2017-08-01T11:15:58.000Z,1003.83
2017-08-01T11:16:59.437Z,1003.55
2017-08-01T11:18:00.878Z,1003.93
2017-08-01T11:19:02.314Z,1003.94
2017-08-01T11:20:03.747Z,1003.94
2017-08-01T11:21:05.181Z,1003.88
2017-08-01T11:22:06.624Z,1003.85
2017-08-01T11:23:08.068Z,1003.95
2017-08-01T11:24:09.499Z,1003.86
2017-08-01T11:25:10.928Z,1003.50
2017-08-01T11:26:12.359Z,1003.57
2017-08-01T11:27:13.801Z,1003.65
2017-08-01T11:28:15.238Z,1003.85
2017-08-01T11:29:16.680Z,1003.91
2017-08-01T11:30:18.129Z,1003.93
2017-08-01T11:31:19.564Z,1003.99
2017-08-01T11:32:20.999Z,1004.07
2017-08-01T11:33:22.433Z,1004.09
2017-08-01T11:34:23.950Z,1004.09
2017-08-01T11:35:25.382Z,1004.06
2017-08-01T11:36:26.818Z,1004.06
2017-08-01T11:37:28.246Z,1003.51
2017-08-01T11:38:29.683Z,1003.91
2017-08-01T11:39:31.116Z,1003.91
2017-08-01T11:40:32.548Z,1004.20
2017-08-01T11:41:34.022Z,1003.92
2017-08-01T11:42:35.459Z,1004.06
2017-08-01T11:43:36.903Z,1004.02
2017-08-01T11:44:38.342Z,1004.07
2017-08-01T11:45:39.783Z,1003.99
2017-08-01T11:46:41.231Z,1003.99
2017-08-01T11:47:42.720Z,1003.92
2017-08-01T11:48:44.173Z,1003.86
2017-08-01T11:49:45.608Z,1003.58
2017-08-01T11:50:47.041Z,1003.81
2017-08-01T11:51:48.506Z,1003.78
2017-08-01T11:52:49.959Z,1003.60
2017-08-01T11:53:51.381Z,1003.67
2017-08-01T11:54:52.814Z,1003.70
2017-08-01T11:55:54.270Z,1003.46
2017-08-01T11:56:55.702Z,1003.44
2017-08-01T11:57:57.143Z,1003.31
2017-08-01T11:58:58.587Z,1003.09
2017-08-01T12:00:00.017Z,1002.94
2017-08-01T12:01:01.461Z,1002.87
2017-08-01T12:02:02.894Z,1002.82
2017-08-01T12:03:04.330Z,1002.61
2017-08-01T12:04:05.761Z,1002.82
2017-08-01T12:05:07.192Z,1002.70
2017-08-01T12:06:08.717Z,1002.81
2017-08-01T12:07:10.188Z,1003.31
2017-08-01T12:08:11.628Z,1003.34
2017-08-01T12:09:13.060Z,1003.00
2017-08-01T12:10:14.503Z,1003.62
2017-08-01T12:11:15.932Z,1003.78
2017-08-01T12:12:17.371Z,1003.87
2017-08-01T12:13:18.808Z,1004.05
2017-08-01T12:14:20.242Z,1004.14
2017-08-01T12:15:21.680Z,1004.20
2017-08-01T12:16:23.120Z,1004.21
2017-08-01T12:17:24.548Z,1004.25
2017-08-01T12:18:25.988Z,1004.14
2017-08-01T12:19:27.553Z,1004.13
2017-08-01T12:20:28.974Z,1004.09
2017-08-01T12:21:30.410Z,1003.99
2017-08-01T12:22:31.847Z,1003.71
2017-08-01T12:23:33.271Z,1003.82
2017-08-01T12:24:34.711Z,1003.56
2017-08-01T12:25:36.153Z,1003.76
2017-08-01T12:26:37.585Z,1003.80
2017-08-01T12:27:39.014Z,1003.46
2017-08-01T12:28:40.451Z,1003.66
2017-08-01T12:29:41.889Z,1003.79
2017-08-01T12:30:43.330Z,1003.77
2017-08-01T12:31:44.781Z,1003.65
2017-08-01T12:32:46.214Z,1003.74